createdAt,value
2022-08-10T00:01:31.790Z,101282.09
2022-08-10T00:03:58.739Z,101283.75
2022-08-10T00:06:25.662Z,101282.38
2022-08-10T00:08:54.753Z,101282.47
2022-08-10T00:11:21.717Z,101278.88
2022-08-10T00:13:48.666Z,101281.00
2022-08-10T00:16:15.534Z,101275.91
2022-08-10T00:18:42.432Z,101273.25
2022-08-10T00:21:09.958Z,101276.00
2022-08-10T00:23:37.802Z,101275.19
2022-08-10T00:26:06.509Z,101276.66
2022-08-10T00:28:33.637Z,101284.13
2022-08-10T00:31:00.628Z,101288.41
2022-08-10T00:33:27.769Z,101291.66
2022-08-10T00:35:54.748Z,101289.81
2022-08-10T00:38:21.744Z,101288.25
2022-08-10T00:40:48.689Z,101287.41
2022-08-10T00:43:15.728Z,101294.22
2022-08-10T00:45:59.410Z,101292.03
2022-08-10T00:48:31.702Z,101284.03
2022-08-10T00:50:59.951Z,101284.31
2022-08-10T00:53:28.663Z,101285.00
2022-08-10T00:57:12.665Z,101284.22
2022-08-10T00:58:43.780Z,101285.94
2022-08-10T01:02:07.386Z,101284.91
2022-08-10T01:04:36.707Z,101288.69
2022-08-10T01:07:06.538Z,101284.56
2022-08-10T01:09:55.737Z,101293.19
2022-08-10T01:12:52.012Z,101286.13
2022-08-10T01:15:33.862Z,101285.19
2022-08-10T01:18:18.667Z,101286.03
2022-08-10T01:21:37.565Z,101284.84
2022-08-10T01:24:48.678Z,101294.75
2022-08-10T01:28:01.266Z,101292.69
2022-08-10T01:30:31.630Z,101283.88
2022-08-10T01:33:12.455Z,101288.72
2022-08-10T01:35:55.611Z,101286.13
2022-08-10T01:38:31.641Z,101287.31
2022-08-10T01:41:13.834Z,101283.09
2022-08-10T01:43:50.660Z,101288.34
2022-08-10T01:46:19.331Z,101283.63
2022-08-10T01:48:54.624Z,101289.13
2022-08-10T01:51:51.604Z,101291.03
2022-08-10T01:54:25.778Z,101288.25
2022-08-10T01:56:58.351Z,101290.72
2022-08-10T01:59:34.577Z,101291.56
2022-08-10T02:02:10.057Z,101283.72
2022-08-10T02:04:42.003Z,101293.56
2022-08-10T02:07:16.267Z,101292.63
2022-08-10T02:09:49.543Z,101287.50
2022-08-10T02:12:24.815Z,101292.16
2022-08-10T02:14:57.302Z,101292.84
2022-08-10T02:17:59.322Z,101293.56
2022-08-10T02:20:25.920Z,101296.28
2022-08-10T02:23:08.405Z,101292.91
2022-08-10T02:25:41.737Z,101298.56
2022-08-10T02:28:29.822Z,101295.50
2022-08-10T02:31:06.168Z,101307.47
2022-08-10T02:33:36.943Z,101305.00
2022-08-10T02:36:08.849Z,101301.56
2022-08-10T02:38:59.235Z,101310.88
2022-08-10T02:45:09.049Z,101315.88
2022-08-10T02:45:23.257Z,101303.19
2022-08-10T02:48:24.917Z,101309.03
2022-08-10T02:50:59.586Z,101306.88
2022-08-10T02:53:54.289Z,101310.88
2022-08-10T02:56:42.419Z,101308.06
2022-08-10T02:59:20.125Z,101312.75
2022-08-10T03:01:50.950Z,101314.44
2022-08-10T03:04:54.581Z,101315.94
2022-08-10T03:07:44.142Z,101312.78
2022-08-10T03:10:25.816Z,101306.91
2022-08-10T03:13:00.354Z,101309.16
2022-08-10T03:15:33.308Z,101308.69
2022-08-10T03:18:01.055Z,101322.63
2022-08-10T03:20:39.603Z,101313.88
2022-08-10T03:23:15.354Z,101315.03
2022-08-10T03:25:53.443Z,101315.72
2022-08-10T03:28:23.604Z,101319.34
2022-08-10T03:30:51.599Z,101318.72
2022-08-10T03:33:21.737Z,101321.06
2022-08-10T03:36:42.878Z,101313.72
2022-08-10T03:38:37.443Z,101321.06
2022-08-10T03:41:09.814Z,101323.41
2022-08-10T03:43:37.633Z,101321.91
2022-08-10T03:46:10.064Z,101332.84
2022-08-10T03:48:49.285Z,101324.19
2022-08-10T03:51:19.503Z,101325.72
2022-08-10T03:54:03.395Z,101332.53
2022-08-10T03:56:38.557Z,101330.34
2022-08-10T03:59:09.940Z,101325.53
2022-08-10T04:02:46.909Z,101335.50
2022-08-10T04:04:28.462Z,101336.00
2022-08-10T04:06:58.570Z,101335.00
2022-08-10T04:09:54.414Z,101337.34
2022-08-10T04:12:19.701Z,101346.47
2022-08-10T04:14:52.387Z,101345.16
2022-08-10T04:17:57.459Z,101347.66
2022-08-10T04:20:34.493Z,101348.81
2022-08-10T04:23:08.338Z,101347.66
2022-08-10T04:25:36.398Z,101346.28
2022-08-10T04:28:04.113Z,101348.25
2022-08-10T04:30:32.666Z,101342.78
2022-08-10T04:33:02.943Z,101350.44
2022-08-10T04:35:32.510Z,101351.63
2022-08-10T04:38:00.706Z,101356.28
2022-08-10T04:40:30.119Z,101353.47
2022-08-10T04:43:12.470Z,101348.94
2022-08-10T04:45:47.432Z,101341.94
2022-08-10T04:48:39.848Z,101342.25
2022-08-10T04:51:07.794Z,101345.22
2022-08-10T04:54:04.247Z,101345.06
2022-08-10T04:56:31.771Z,101343.19
2022-08-10T04:59:00.587Z,101354.53
2022-08-10T05:02:30.402Z,101342.63
2022-08-10T05:07:01.889Z,101350.88
2022-08-10T05:09:28.853Z,101348.94
2022-08-10T05:11:55.875Z,101350.03
2022-08-10T05:14:22.801Z,101354.84
2022-08-10T05:16:49.651Z,101361.44
2022-08-10T05:19:16.506Z,101358.88
2022-08-10T05:22:02.978Z,101361.81
2022-08-10T05:24:32.442Z,101372.22
2022-08-10T05:27:09.460Z,101366.72
2022-08-10T05:29:37.427Z,101377.06
2022-08-10T05:32:04.801Z,101363.34
2022-08-10T05:34:31.703Z,101371.31
2022-08-10T05:36:58.922Z,101376.50
2022-08-10T05:39:30.404Z,101368.97
2022-08-10T05:42:01.096Z,101366.16
2022-08-10T05:44:29.829Z,101376.84
2022-08-10T05:46:57.022Z,101381.69
2022-08-10T05:49:24.655Z,101383.88
2022-08-10T05:51:52.196Z,101381.94
2022-08-10T05:54:20.171Z,101382.19
2022-08-10T05:56:55.326Z,101382.53
2022-08-10T06:00:34.603Z,101387.94
2022-08-10T06:02:45.762Z,101385.31
2022-08-10T06:05:23.612Z,101392.75
2022-08-10T06:08:19.335Z,101386.78
2022-08-10T06:12:21.682Z,101386.75
2022-08-10T06:14:13.439Z,101392.97
2022-08-10T06:16:44.521Z,101383.03
2022-08-10T06:19:15.531Z,101392.44
2022-08-10T06:22:00.690Z,101393.91
2022-08-10T06:24:31.179Z,101401.22
2022-08-10T06:26:59.504Z,101396.44
2022-08-10T06:29:29.786Z,101399.97
2022-08-10T06:31:58.725Z,101407.53
2022-08-10T06:34:42.887Z,101400.44
2022-08-10T06:37:13.148Z,101409.47
2022-08-10T06:39:40.134Z,101410.75
2022-08-10T06:42:20.246Z,101401.25
2022-08-10T06:45:00.939Z,101412.41
2022-08-10T06:48:00.878Z,101410.06
2022-08-10T06:50:56.157Z,101406.94
2022-08-10T06:53:53.434Z,101408.97
2022-08-10T06:56:36.896Z,101416.09
2022-08-10T06:59:24.333Z,101409.22
2022-08-10T07:01:58.740Z,101414.63
2022-08-10T07:04:40.731Z,101408.75
2022-08-10T07:07:09.436Z,101410.50
2022-08-10T07:09:40.978Z,101405.72
2022-08-10T07:12:09.702Z,101402.78
2022-08-10T07:14:44.510Z,101402.25
2022-08-10T07:17:16.067Z,101403.97
2022-08-10T07:19:55.519Z,101398.91
2022-08-10T07:23:54.430Z,101393.06
2022-08-10T07:25:19.235Z,101391.50
2022-08-10T07:28:00.654Z,101389.38
2022-08-10T07:30:32.482Z,101382.44
2022-08-10T07:33:01.993Z,101394.84
2022-08-10T07:35:41.508Z,101384.91
2022-08-10T07:38:17.026Z,101379.31
2022-08-10T07:40:44.608Z,101381.09
2022-08-10T07:43:12.623Z,101383.22
2022-08-10T07:45:40.640Z,101380.50
2022-08-10T07:48:15.860Z,101386.97
2022-08-10T07:50:44.857Z,101388.91
2022-08-10T07:53:19.391Z,101387.38
2022-08-10T07:56:04.636Z,101388.47
2022-08-10T07:58:56.457Z,101384.97
2022-08-10T08:01:29.637Z,101393.25
2022-08-10T08:04:05.712Z,101388.78
2022-08-10T08:06:41.037Z,101383.53
2022-08-10T08:09:09.692Z,101381.66
2022-08-10T08:11:39.708Z,101386.00
2022-08-10T08:14:09.250Z,101386.13
2022-08-10T08:16:42.007Z,101372.75
2022-08-10T08:19:26.905Z,101376.25
2022-08-10T08:24:07.235Z,101378.50
2022-08-10T08:24:44.349Z,101376.28
2022-08-10T08:27:16.790Z,101376.66
2022-08-10T08:29:47.428Z,101373.38
2022-08-10T08:32:24.316Z,101382.09
2022-08-10T08:35:04.380Z,101373.22
2022-08-10T08:38:32.072Z,101373.81
2022-08-10T08:40:33.661Z,101375.66
2022-08-10T08:43:49.377Z,101370.41
2022-08-10T08:46:52.658Z,101367.59
2022-08-10T08:50:07.724Z,101379.38
2022-08-10T08:53:22.348Z,101364.16
2022-08-10T08:56:16.665Z,101374.47
2022-08-10T08:59:30.444Z,101359.03
2022-08-10T09:02:33.398Z,101359.78
2022-08-10T09:05:58.393Z,101353.31
2022-08-10T09:08:36.762Z,101359.78
2022-08-10T09:11:27.767Z,101356.41
2022-08-10T09:14:41.853Z,101367.66
2022-08-10T09:17:33.003Z,101357.97
2022-08-10T09:20:19.538Z,101348.75
2022-08-10T09:23:03.604Z,101349.66
2022-08-10T09:25:38.021Z,101350.34
2022-08-10T09:28:08.588Z,101358.53
2022-08-10T09:31:10.796Z,101358.44
2022-08-10T09:36:23.355Z,101349.41
2022-08-10T09:37:02.227Z,101343.44
2022-08-10T09:40:06.585Z,101362.13
2022-08-10T09:43:21.937Z,101351.63
2022-08-10T09:45:59.715Z,101343.16
2022-08-10T09:49:22.221Z,101354.09
2022-08-10T09:52:21.925Z,101341.25
2022-08-10T09:55:06.823Z,101346.13
2022-08-10T09:58:12.391Z,101329.28
2022-08-10T10:00:48.042Z,101337.34
2022-08-10T10:03:27.818Z,101346.31
2022-08-10T10:06:10.955Z,101337.31
2022-08-10T10:09:10.115Z,101338.88
2022-08-10T10:12:11.552Z,101338.00
2022-08-10T10:15:24.504Z,101340.16
2022-08-10T10:18:39.643Z,101324.97
2022-08-10T10:21:24.194Z,101319.75
2022-08-10T10:24:22.958Z,101320.69
2022-08-10T10:27:00.201Z,101336.50
2022-08-10T10:30:09.962Z,101315.09
2022-08-10T10:32:58.108Z,101301.34
2022-08-10T10:35:37.065Z,101319.66
2022-08-10T10:38:09.296Z,101302.75
2022-08-10T10:41:08.856Z,101311.41
2022-08-10T10:44:14.296Z,101306.38
2022-08-10T10:47:28.775Z,101326.84
2022-08-10T10:50:13.304Z,101301.00
2022-08-10T10:53:01.953Z,101297.22
2022-08-10T10:56:13.294Z,101295.63
2022-08-10T10:58:34.058Z,101298.72
2022-08-10T11:01:22.793Z,101303.34
2022-08-10T11:04:21.154Z,101290.09
2022-08-10T11:07:01.376Z,101280.84
2022-08-10T11:10:04.900Z,101289.72
2022-08-10T11:12:53.665Z,101298.63
2022-08-10T11:15:31.188Z,101289.97
2022-08-10T11:18:29.340Z,101269.81
2022-08-10T11:21:22.656Z,101266.28
2022-08-10T11:24:49.103Z,101268.41
2022-08-10T11:27:25.640Z,101283.00
2022-08-10T11:30:18.842Z,101297.72
2022-08-10T11:36:55.298Z,101272.53
2022-08-10T11:40:20.134Z,101278.00
2022-08-10T11:43:19.158Z,101274.28
2022-08-10T11:46:27.994Z,101261.84
2022-08-10T11:49:13.302Z,101285.00
2022-08-10T11:51:53.611Z,101265.38
2022-08-10T11:54:55.079Z,101246.47
2022-08-10T11:57:54.332Z,101283.03
2022-08-10T12:00:18.744Z,101260.16
2022-08-10T12:02:56.113Z,101258.03
2022-08-10T12:05:53.750Z,101251.44
2022-08-10T12:10:07.372Z,101258.91
2022-08-10T12:11:25.550Z,101249.41
2022-08-10T12:14:21.547Z,101237.50
2022-08-10T12:17:02.404Z,101245.09
2022-08-10T12:20:05.317Z,101255.34
2022-08-10T12:22:42.074Z,101229.13
2022-08-10T12:25:57.107Z,101230.31
2022-08-10T12:28:50.884Z,101227.13
2022-08-10T12:31:27.225Z,101220.25
2022-08-10T12:34:23.082Z,101224.81
2022-08-10T12:37:06.956Z,101218.50
2022-08-10T12:40:17.547Z,101226.16
2022-08-10T12:44:06.636Z,101208.84
2022-08-10T12:46:35.867Z,101219.38
2022-08-10T12:49:29.038Z,101200.25
2022-08-10T12:52:26.621Z,101186.69
2022-08-10T12:54:57.061Z,101184.56
2022-08-10T12:57:26.141Z,101181.72
2022-08-10T12:59:58.967Z,101181.88
2022-08-10T13:02:38.510Z,101177.09
2022-08-10T13:05:11.104Z,101175.06
2022-08-10T13:08:25.327Z,101180.72
2022-08-10T13:10:28.539Z,101187.19
2022-08-10T13:12:58.441Z,101177.75
2022-08-10T13:15:48.434Z,101181.28
2022-08-10T13:18:44.557Z,101175.06
2022-08-10T13:21:20.083Z,101172.03
2022-08-10T13:24:05.170Z,101165.56
2022-08-10T13:27:03.771Z,101148.66
2022-08-10T13:29:36.394Z,101141.44
2022-08-10T13:32:09.850Z,101151.59
2022-08-10T13:34:45.560Z,101161.28
2022-08-10T13:37:17.305Z,101145.50
2022-08-10T13:39:58.728Z,101132.16
2022-08-10T13:42:37.028Z,101137.31
2022-08-10T13:45:14.587Z,101126.69
2022-08-10T13:47:49.642Z,101142.16
2022-08-10T13:50:35.494Z,101129.22
2022-08-10T13:53:14.925Z,101125.22
2022-08-10T13:55:55.009Z,101127.06
2022-08-10T13:58:32.990Z,101122.28
2022-08-10T14:01:08.424Z,101120.94
2022-08-10T14:03:39.098Z,101124.78
2022-08-10T14:06:12.109Z,101151.19
2022-08-10T14:08:45.021Z,101124.34
2022-08-10T14:11:17.119Z,101125.41
2022-08-10T14:13:53.661Z,101119.78
2022-08-10T14:16:22.301Z,101110.16
2022-08-10T14:18:53.013Z,101111.94
2022-08-10T14:21:21.149Z,101114.25
2022-08-10T14:23:53.257Z,101100.53
2022-08-10T14:26:30.715Z,101113.44
2022-08-10T14:29:09.661Z,101094.31
2022-08-10T14:31:40.805Z,101100.22
2022-08-10T14:36:14.766Z,101093.19
2022-08-10T14:37:45.140Z,101093.66
2022-08-10T14:40:17.657Z,101098.00
2022-08-10T14:42:54.266Z,101085.31
2022-08-10T14:45:26.664Z,101085.19
2022-08-10T14:48:03.673Z,101077.69
2022-08-10T14:50:33.481Z,101083.44
2022-08-10T14:53:20.218Z,101084.97
2022-08-10T14:56:15.649Z,101077.31
2022-08-10T14:59:06.289Z,101077.00
2022-08-10T15:02:01.208Z,101095.28
2022-08-10T15:04:28.885Z,101084.25
2022-08-10T15:07:21.882Z,101080.66
2022-08-10T15:10:02.162Z,101070.44
2022-08-10T15:12:38.652Z,101066.56
2022-08-10T15:15:11.027Z,101080.50
2022-08-10T15:17:50.437Z,101070.34
2022-08-10T15:20:24.336Z,101063.69
2022-08-10T15:23:31.220Z,101069.25
2022-08-10T15:26:10.751Z,101062.94
2022-08-10T15:29:22.150Z,101066.66
2022-08-10T15:31:59.885Z,101062.09
2022-08-10T15:34:46.909Z,101052.84
2022-08-10T15:37:36.583Z,101053.56
2022-08-10T15:40:21.286Z,101064.94
2022-08-10T15:43:02.062Z,101057.56
2022-08-10T15:45:34.772Z,101054.16
2022-08-10T15:48:06.043Z,101052.97
2022-08-10T15:50:40.819Z,101046.25
2022-08-10T15:53:49.566Z,101050.72
2022-08-10T15:56:38.953Z,101037.00
2022-08-10T15:59:46.709Z,101044.25
2022-08-10T16:02:20.628Z,101047.34
2022-08-10T16:05:14.146Z,101045.59
2022-08-10T16:07:56.725Z,101048.19
2022-08-10T16:10:38.557Z,101039.16
2022-08-10T16:13:50.095Z,101039.88
2022-08-10T16:16:05.759Z,101034.59
2022-08-10T16:18:38.050Z,101031.56
2022-08-10T16:21:26.748Z,101034.47
2022-08-10T16:24:15.392Z,101032.25
2022-08-10T16:26:51.800Z,101026.63
2022-08-10T16:29:24.372Z,101030.00
2022-08-10T16:32:04.344Z,101017.34
2022-08-10T16:34:35.345Z,101022.31
2022-08-10T16:37:11.233Z,101027.47
2022-08-10T16:39:58.356Z,101019.28
2022-08-10T16:42:34.941Z,101012.47
2022-08-10T16:45:08.850Z,101025.03
2022-08-10T16:47:46.659Z,101018.44
2022-08-10T16:50:21.764Z,101020.06
2022-08-10T16:52:51.739Z,101020.41
2022-08-10T16:55:48.946Z,101015.75
2022-08-10T16:58:16.041Z,101024.72
2022-08-10T17:00:45.584Z,101021.44
2022-08-10T17:03:22.887Z,101014.34
2022-08-10T17:06:11.977Z,101012.09
2022-08-10T17:08:51.524Z,100997.91
2022-08-10T17:11:21.623Z,101001.84
2022-08-10T17:13:49.199Z,101012.50
2022-08-10T17:16:17.957Z,101010.69
2022-08-10T17:18:46.975Z,101012.09
2022-08-10T17:21:30.459Z,101011.41
2022-08-10T17:24:03.653Z,101002.41
2022-08-10T17:26:35.590Z,101015.63
2022-08-10T17:29:57.345Z,101010.50
2022-08-10T17:32:44.149Z,101013.44
2022-08-10T17:35:22.493Z,101012.00
2022-08-10T17:38:21.336Z,101007.44
2022-08-10T17:41:00.733Z,101008.03
2022-08-10T17:43:46.664Z,101007.81
2022-08-10T17:46:17.081Z,101008.03
2022-08-10T17:48:44.814Z,100999.22
2022-08-10T17:51:15.501Z,100994.59
2022-08-10T17:53:52.543Z,101002.28
2022-08-10T17:56:21.547Z,101000.31
2022-08-10T17:58:53.691Z,101000.59
2022-08-10T18:01:41.775Z,100999.84
2022-08-10T18:04:19.341Z,101006.94
2022-08-10T18:06:54.690Z,101007.47
2022-08-10T18:09:52.639Z,101014.69
2022-08-10T18:12:36.518Z,101003.34
2022-08-10T18:15:12.325Z,101005.69
2022-08-10T18:17:46.278Z,101007.16
2022-08-10T18:20:14.762Z,101011.81
2022-08-10T18:22:50.995Z,101010.97
2022-08-10T18:25:25.831Z,101012.75
2022-08-10T18:28:03.780Z,101003.28
2022-08-10T18:30:36.567Z,101020.91
2022-08-10T18:33:09.508Z,101020.31
2022-08-10T18:35:37.434Z,101022.91
2022-08-10T18:38:06.466Z,101022.47
2022-08-10T18:40:36.150Z,101017.25
2022-08-10T18:44:05.835Z,101026.22
2022-08-10T18:45:58.998Z,101027.59
2022-08-10T18:48:38.867Z,101025.03
2022-08-10T18:51:07.808Z,101030.81
2022-08-10T18:53:50.645Z,101026.53
2022-08-10T18:56:32.341Z,101027.84
2022-08-10T19:00:08.260Z,101022.25
2022-08-10T19:02:58.891Z,101026.53
2022-08-10T19:06:05.940Z,101034.41
2022-08-10T19:08:56.853Z,101032.47
2022-08-10T19:11:40.349Z,101034.63
2022-08-10T19:14:18.559Z,101032.06
2022-08-10T19:18:01.112Z,101034.19
2022-08-10T19:20:39.617Z,101027.25
2022-08-10T19:23:55.558Z,101038.44
2022-08-10T19:26:44.200Z,101038.47
2022-08-10T19:30:10.233Z,101039.50
2022-08-10T19:32:54.836Z,101040.66
2022-08-10T19:36:04.515Z,101044.84
2022-08-10T19:39:19.506Z,101053.97
2022-08-10T19:42:11.479Z,101052.31
2022-08-10T19:45:56.076Z,101044.69
2022-08-10T19:48:52.910Z,101050.28
2022-08-10T19:51:57.374Z,101045.84
2022-08-10T19:55:12.464Z,101046.06
2022-08-10T19:58:24.319Z,101052.44
2022-08-10T20:01:02.713Z,101054.91
2022-08-10T20:03:50.567Z,101055.94
2022-08-10T20:06:27.002Z,101053.25
2022-08-10T20:09:29.249Z,101059.44
2022-08-10T20:12:03.808Z,101056.16
2022-08-10T20:14:38.013Z,101052.44
2022-08-10T20:17:51.423Z,101051.41
2022-08-10T20:20:45.655Z,101054.09
2022-08-10T20:23:15.884Z,101046.28
2022-08-10T20:25:52.028Z,101050.59
2022-08-10T20:28:49.792Z,101055.13
2022-08-10T20:31:27.563Z,101048.75
2022-08-10T20:34:06.008Z,101055.56
2022-08-10T20:36:37.889Z,101051.44
2022-08-10T20:39:21.304Z,101046.69
2022-08-10T20:42:22.092Z,101058.66
2022-08-10T20:45:04.093Z,101055.78
2022-08-10T20:47:54.341Z,101051.00
2022-08-10T20:50:45.081Z,101060.06
2022-08-10T20:53:19.726Z,101062.94
2022-08-10T20:56:03.765Z,101051.81
2022-08-10T20:59:33.237Z,101060.47
2022-08-10T21:02:49.671Z,101054.25
2022-08-10T21:05:16.541Z,101057.56
2022-08-10T21:08:11.103Z,101046.59
2022-08-10T21:11:01.222Z,101044.78
2022-08-10T21:14:12.990Z,101046.38
2022-08-10T21:17:03.466Z,101046.38
2022-08-10T21:20:30.506Z,101053.59
2022-08-10T21:23:05.495Z,101047.44
2022-08-10T21:26:11.561Z,101048.66
2022-08-10T21:28:49.916Z,101048.44
2022-08-10T21:32:03.725Z,101041.38
2022-08-10T21:34:55.846Z,101044.41
2022-08-10T21:38:21.695Z,101050.41
2022-08-10T21:41:57.720Z,101047.69
2022-08-10T21:45:58.094Z,101052.59
2022-08-10T21:49:06.570Z,101050.09
2022-08-10T21:52:08.337Z,101050.72
2022-08-10T21:55:09.377Z,101045.16
2022-08-10T21:58:08.866Z,101047.56
2022-08-10T22:01:36.445Z,101044.47
2022-08-10T22:04:25.518Z,101042.59
2022-08-10T22:07:13.234Z,101045.84
2022-08-10T22:10:05.389Z,101040.31
2022-08-10T22:13:02.853Z,101036.38
2022-08-10T22:16:10.577Z,101036.28
2022-08-10T22:19:02.780Z,101044.66
2022-08-10T22:22:19.807Z,101048.00
2022-08-10T22:25:43.659Z,101043.84
2022-08-10T22:28:33.966Z,101045.03
2022-08-10T22:31:47.512Z,101053.47
2022-08-10T22:35:18.685Z,101051.63
2022-08-10T22:38:25.137Z,101052.59
2022-08-10T22:41:12.675Z,101056.88
2022-08-10T22:43:59.289Z,101053.53
2022-08-10T22:46:49.368Z,101052.31
2022-08-10T22:49:26.025Z,101053.56
2022-08-10T22:52:19.578Z,101057.41
2022-08-10T22:55:24.689Z,101052.50
2022-08-10T22:58:10.613Z,101058.44
2022-08-10T23:00:38.429Z,101062.72
2022-08-10T23:03:23.177Z,101056.97
2022-08-10T23:05:56.799Z,101053.31
2022-08-10T23:08:50.498Z,101049.59
2022-08-10T23:11:42.737Z,101047.97
2022-08-10T23:14:14.928Z,101055.34
2022-08-10T23:17:08.727Z,101050.28
2022-08-10T23:20:04.291Z,101049.59
2022-08-10T23:22:57.003Z,101051.56
2022-08-10T23:25:28.261Z,101049.53
2022-08-10T23:28:03.001Z,101053.63
2022-08-10T23:30:42.806Z,101058.53
2022-08-10T23:33:13.079Z,101053.50
2022-08-10T23:36:30.311Z,101047.44
2022-08-10T23:38:37.551Z,101058.06
2022-08-10T23:41:05.490Z,101053.56
2022-08-10T23:44:02.370Z,101058.16
2022-08-10T23:46:28.851Z,101054.53
2022-08-10T23:48:59.321Z,101057.78
2022-08-10T23:51:55.985Z,101059.06
2022-08-10T23:54:25.004Z,101050.59
2022-08-10T23:57:00.999Z,101046.88
2022-08-10T23:59:32.232Z,101056.50
